createdAt,value
2022-10-17T00:01:09.006Z,96942.09
2022-10-17T00:03:39.030Z,96944.41
2022-10-17T00:06:09.352Z,96941.91
2022-10-17T00:08:40.718Z,96942.16
2022-10-17T00:11:16.102Z,96943.50
2022-10-17T00:13:44.321Z,96941.75
2022-10-17T00:16:12.804Z,96940.66
2022-10-17T00:18:41.061Z,96939.81
2022-10-17T00:21:16.459Z,96943.06
2022-10-17T00:23:46.325Z,96936.81
2022-10-17T00:26:15.191Z,96940.25
2022-10-17T00:28:43.652Z,96938.88
2022-10-17T00:31:11.881Z,96938.94
2022-10-17T00:33:40.300Z,96944.00
2022-10-17T00:36:11.302Z,96935.50
2022-10-17T00:38:39.603Z,96948.22
2022-10-17T00:41:11.403Z,96941.44
2022-10-17T00:43:57.355Z,96947.44
2022-10-17T00:46:27.142Z,96946.72
2022-10-17T00:48:57.065Z,96946.72
2022-10-17T00:51:32.189Z,96944.44
2022-10-17T00:54:00.862Z,96949.97
2022-10-17T00:56:31.047Z,96955.13
2022-10-17T00:58:59.420Z,96943.91
2022-10-17T01:01:27.863Z,96944.19
2022-10-17T01:03:56.133Z,96943.97
2022-10-17T01:06:24.413Z,96950.34
2022-10-17T01:08:52.795Z,96945.50
2022-10-17T01:11:36.517Z,96950.41
2022-10-17T01:14:08.680Z,96947.16
2022-10-17T01:16:48.957Z,96947.25
2022-10-17T01:19:37.054Z,96938.16
2022-10-17T01:22:10.052Z,96940.38
2022-10-17T01:24:48.964Z,96941.81
2022-10-17T01:27:42.076Z,96940.41
2022-10-17T01:30:38.189Z,96937.97
2022-10-17T01:33:10.773Z,96940.47
2022-10-17T01:35:42.092Z,96944.78
2022-10-17T01:38:12.927Z,96942.72
2022-10-17T01:40:45.013Z,96944.50
2022-10-17T01:43:17.813Z,96952.66
2022-10-17T01:45:50.250Z,96938.88
2022-10-17T01:48:22.928Z,96946.28
2022-10-17T01:50:53.796Z,96944.84
2022-10-17T01:53:25.106Z,96948.78
2022-10-17T01:55:55.495Z,96942.59
2022-10-17T01:58:26.813Z,96937.47
2022-10-17T02:00:56.243Z,96941.78
2022-10-17T02:03:27.140Z,96939.91
2022-10-17T02:05:55.485Z,96935.09
2022-10-17T02:08:27.928Z,96942.19
2022-10-17T02:10:59.423Z,96933.47
2022-10-17T02:13:34.097Z,96936.00
2022-10-17T02:16:19.796Z,96935.31
2022-10-17T02:19:07.304Z,96936.97
2022-10-17T02:21:41.621Z,96938.97
2022-10-17T02:24:18.271Z,96934.88
2022-10-17T02:26:51.270Z,96936.00
2022-10-17T02:29:21.553Z,96931.78
2022-10-17T02:31:53.143Z,96941.88
2022-10-17T02:34:26.494Z,96940.63
2022-10-17T02:36:57.362Z,96934.28
2022-10-17T02:39:26.645Z,96939.09
2022-10-17T02:41:55.830Z,96944.00
2022-10-17T02:44:24.534Z,96947.66
2022-10-17T02:46:56.746Z,96946.00
2022-10-17T02:49:29.240Z,96951.84
2022-10-17T02:51:59.853Z,96946.22
2022-10-17T02:54:29.528Z,96955.66
2022-10-17T02:57:01.994Z,96946.41
2022-10-17T02:59:31.577Z,96949.56
2022-10-17T03:02:04.040Z,96952.88
2022-10-17T03:04:34.181Z,96953.38
2022-10-17T03:07:02.402Z,96956.34
2022-10-17T03:09:30.733Z,96956.34
2022-10-17T03:11:58.972Z,96960.00
2022-10-17T03:14:27.179Z,96966.03
2022-10-17T03:16:55.382Z,96960.69
2022-10-17T03:19:23.645Z,96964.19
2022-10-17T03:21:53.253Z,96968.84
2022-10-17T03:24:21.503Z,96970.56
2022-10-17T03:26:49.702Z,96971.81
2022-10-17T03:29:17.961Z,96965.84
2022-10-17T03:31:46.167Z,96958.91
2022-10-17T03:34:16.693Z,96968.69
2022-10-17T03:36:44.912Z,96970.28
2022-10-17T03:39:14.804Z,96964.22
2022-10-17T03:41:43.190Z,96966.19
2022-10-17T03:44:11.530Z,96965.53
2022-10-17T03:46:40.032Z,96967.84
2022-10-17T03:49:09.331Z,96959.22
2022-10-17T03:51:37.564Z,96965.03
2022-10-17T03:54:06.044Z,96961.69
2022-10-17T03:56:35.650Z,96969.25
2022-10-17T03:59:04.089Z,96971.81
2022-10-17T04:01:32.312Z,96969.53
2022-10-17T04:04:00.593Z,96969.00
2022-10-17T04:06:28.852Z,96980.41
2022-10-17T04:08:57.130Z,96972.94
2022-10-17T04:11:25.344Z,96977.31
2022-10-17T04:13:55.832Z,96978.34
2022-10-17T04:16:24.697Z,96979.47
2022-10-17T04:18:55.228Z,96988.28
2022-10-17T04:21:24.677Z,96987.53
2022-10-17T04:23:56.051Z,96992.13
2022-10-17T04:26:24.529Z,96993.47
2022-10-17T04:28:52.796Z,96991.06
2022-10-17T04:31:22.362Z,96999.47
2022-10-17T04:33:51.661Z,96998.47
2022-10-17T04:36:20.930Z,96999.47
2022-10-17T04:38:49.155Z,96993.03
2022-10-17T04:41:19.017Z,96999.25
2022-10-17T04:43:50.266Z,96999.69
2022-10-17T04:46:19.801Z,96996.81
2022-10-17T04:48:49.412Z,97001.34
2022-10-17T04:51:21.779Z,97005.03
2022-10-17T04:53:52.832Z,97004.72
2022-10-17T04:59:09.115Z,97021.38
2022-10-17T05:01:37.351Z,97020.72
2022-10-17T05:04:06.976Z,97013.38
2022-10-17T05:06:35.298Z,97009.72
2022-10-17T05:09:03.537Z,97013.31
2022-10-17T05:11:31.770Z,97014.47
2022-10-17T05:14:01.539Z,97018.88
2022-10-17T05:16:30.873Z,97010.25
2022-10-17T05:19:00.029Z,97010.13
2022-10-17T05:21:30.817Z,97015.59
2022-10-17T05:23:59.413Z,97015.56
2022-10-17T05:26:27.704Z,97026.06
2022-10-17T05:28:56.059Z,97028.28
2022-10-17T05:31:24.267Z,97032.28
2022-10-17T05:33:52.554Z,97025.16
2022-10-17T05:36:20.761Z,97032.94
2022-10-17T05:38:51.969Z,97039.66
2022-10-17T05:41:20.816Z,97041.63
2022-10-17T05:43:50.290Z,97049.25
2022-10-17T05:46:18.845Z,97055.34
2022-10-17T05:48:47.091Z,97047.69
2022-10-17T05:51:15.332Z,97049.34
2022-10-17T05:53:43.819Z,97053.25
2022-10-17T05:56:14.471Z,97050.25
2022-10-17T05:58:52.391Z,97060.22
2022-10-17T06:01:21.549Z,97064.69
2022-10-17T06:03:49.848Z,97066.13
2022-10-17T06:06:19.195Z,97065.84
2022-10-17T06:08:47.663Z,97067.34
2022-10-17T06:11:17.394Z,97061.59
2022-10-17T06:13:45.763Z,97074.16
2022-10-17T06:16:14.010Z,97076.97
2022-10-17T06:18:42.291Z,97067.72
2022-10-17T06:21:12.085Z,97062.69
2022-10-17T06:23:40.409Z,97076.44
2022-10-17T06:26:08.711Z,97069.03
2022-10-17T06:28:38.380Z,97079.31
2022-10-17T06:31:07.952Z,97074.31
2022-10-17T06:33:36.783Z,97084.75
2022-10-17T06:36:05.701Z,97081.56
2022-10-17T06:38:35.209Z,97087.63
2022-10-17T06:41:08.757Z,97084.31
2022-10-17T06:43:38.868Z,97081.03
2022-10-17T06:46:07.615Z,97070.53
2022-10-17T06:48:35.971Z,97074.91
2022-10-17T06:51:05.567Z,97084.78
2022-10-17T06:53:35.571Z,97083.97
2022-10-17T06:56:04.652Z,97084.16
2022-10-17T06:58:34.716Z,97086.47
2022-10-17T07:01:06.099Z,97095.44
2022-10-17T07:03:35.409Z,97100.25
2022-10-17T07:06:03.889Z,97099.06
2022-10-17T07:08:33.432Z,97105.69
2022-10-17T07:11:10.194Z,97101.78
2022-10-17T07:13:39.404Z,97102.91
2022-10-17T07:16:09.507Z,97102.66
2022-10-17T07:18:38.775Z,97101.16
2022-10-17T07:21:08.535Z,97103.03
2022-10-17T07:23:37.327Z,97109.91
2022-10-17T07:26:07.970Z,97115.38
2022-10-17T07:28:36.159Z,97114.03
2022-10-17T07:31:05.907Z,97119.84
2022-10-17T07:33:35.916Z,97116.66
2022-10-17T07:36:05.772Z,97124.50
2022-10-17T07:38:34.270Z,97129.78
2022-10-17T07:41:04.030Z,97134.03
2022-10-17T07:43:32.431Z,97134.94
2022-10-17T07:46:02.415Z,97135.50
2022-10-17T07:48:30.934Z,97136.75
2022-10-17T07:51:03.326Z,97133.13
2022-10-17T07:53:31.868Z,97134.22
2022-10-17T07:56:00.073Z,97140.66
2022-10-17T07:58:28.785Z,97143.97
2022-10-17T08:00:57.060Z,97144.03
2022-10-17T08:03:25.310Z,97145.63
2022-10-17T08:05:53.520Z,97134.31
2022-10-17T08:08:23.136Z,97137.91
2022-10-17T08:10:51.344Z,97147.81
2022-10-17T08:13:19.541Z,97136.81
2022-10-17T08:15:48.845Z,97152.28
2022-10-17T08:18:17.656Z,97144.00
2022-10-17T08:20:46.304Z,97134.19
2022-10-17T08:23:14.515Z,97150.72
2022-10-17T08:25:44.168Z,97139.56
2022-10-17T08:28:12.493Z,97138.91
2022-10-17T08:30:40.758Z,97141.81
2022-10-17T08:33:08.973Z,97134.34
2022-10-17T08:35:37.233Z,97142.78
2022-10-17T08:38:05.575Z,97139.97
2022-10-17T08:40:35.412Z,97136.19
2022-10-17T08:43:15.805Z,97136.19
2022-10-17T08:45:47.977Z,97142.25
2022-10-17T08:48:18.915Z,97139.38
2022-10-17T08:50:50.119Z,97135.91
2022-10-17T08:53:21.162Z,97131.13
2022-10-17T08:55:51.379Z,97133.19
2022-10-17T08:58:23.295Z,97142.13
2022-10-17T09:01:01.857Z,97142.53
2022-10-17T09:03:40.874Z,97139.09
2022-10-17T09:06:16.837Z,97133.72
2022-10-17T09:08:52.364Z,97134.41
2022-10-17T09:11:32.388Z,97130.63
2022-10-17T09:14:12.161Z,97135.38
2022-10-17T09:16:52.083Z,97131.84
2022-10-17T09:19:22.109Z,97131.38
2022-10-17T09:21:53.392Z,97129.00
2022-10-17T09:24:25.776Z,97126.09
2022-10-17T09:26:54.599Z,97121.75
2022-10-17T09:29:27.706Z,97131.44
2022-10-17T09:32:03.077Z,97137.78
2022-10-17T09:34:34.518Z,97145.63
2022-10-17T09:37:03.561Z,97150.72
2022-10-17T09:39:33.009Z,97136.28
2022-10-17T09:42:02.276Z,97136.00
2022-10-17T09:44:33.630Z,97133.59
2022-10-17T09:47:27.383Z,97142.47
2022-10-17T09:49:55.582Z,97143.63
2022-10-17T09:55:18.961Z,97135.22
2022-10-17T09:57:56.009Z,97142.88
2022-10-17T10:00:28.299Z,97154.38
2022-10-17T10:03:17.871Z,97143.13
2022-10-17T10:06:02.621Z,97151.28
2022-10-17T10:08:32.684Z,97156.31
2022-10-17T10:11:07.911Z,97161.94
2022-10-17T10:13:38.289Z,97158.09
2022-10-17T10:16:24.220Z,97162.31
2022-10-17T10:18:52.869Z,97157.53
2022-10-17T10:21:22.752Z,97161.44
2022-10-17T10:24:13.307Z,97161.97
2022-10-17T10:26:42.530Z,97149.03
2022-10-17T10:29:23.346Z,97150.09
2022-10-17T10:31:53.360Z,97158.88
2022-10-17T10:34:25.669Z,97149.75
2022-10-17T10:37:00.842Z,97140.19
2022-10-17T10:39:38.985Z,97145.06
2022-10-17T10:42:10.350Z,97141.63
2022-10-17T10:44:40.771Z,97143.50
2022-10-17T10:47:21.131Z,97143.06
2022-10-17T10:49:51.959Z,97142.78
2022-10-17T10:52:30.937Z,97145.81
2022-10-17T10:55:05.802Z,97142.59
2022-10-17T10:57:36.124Z,97143.88
2022-10-17T11:00:06.119Z,97150.50
2022-10-17T11:02:39.668Z,97142.19
2022-10-17T11:05:13.471Z,97142.50
2022-10-17T11:07:44.915Z,97138.97
2022-10-17T11:10:16.129Z,97131.53
2022-10-17T11:12:47.438Z,97132.47
2022-10-17T11:15:22.326Z,97133.94
2022-10-17T11:17:58.014Z,97133.19
2022-10-17T11:20:31.877Z,97130.75
2022-10-17T11:23:06.203Z,97127.31
2022-10-17T11:25:35.905Z,97131.53
2022-10-17T11:28:06.077Z,97132.22
2022-10-17T11:30:41.516Z,97128.91
2022-10-17T11:33:13.524Z,97123.69
2022-10-17T11:35:43.285Z,97123.22
2022-10-17T11:38:17.644Z,97125.91
2022-10-17T11:40:47.470Z,97123.28
2022-10-17T11:43:18.873Z,97129.28
2022-10-17T11:45:49.864Z,97132.09
2022-10-17T11:48:22.606Z,97123.47
2022-10-17T11:53:54.028Z,97126.41
2022-10-17T11:56:26.772Z,97128.00
2022-10-17T11:59:01.271Z,97130.78
2022-10-17T12:01:35.611Z,97129.59
2022-10-17T12:04:17.714Z,97120.69
2022-10-17T12:06:57.573Z,97116.66
2022-10-17T12:09:33.227Z,97108.81
2022-10-17T12:12:03.418Z,97112.88
2022-10-17T12:14:43.567Z,97113.28
2022-10-17T12:17:29.679Z,97108.69
2022-10-17T12:20:28.374Z,97106.66
2022-10-17T12:22:58.147Z,97112.25
2022-10-17T12:25:30.140Z,97109.72
2022-10-17T12:28:20.367Z,97107.81
2022-10-17T12:30:53.562Z,97098.88
2022-10-17T12:33:23.560Z,97098.84
2022-10-17T12:36:29.957Z,97099.94
2022-10-17T12:39:31.842Z,97093.34
2022-10-17T12:42:00.097Z,97099.13
2022-10-17T12:44:38.787Z,97090.84
2022-10-17T12:47:36.521Z,97092.72
2022-10-17T12:50:05.499Z,97098.50
2022-10-17T12:52:59.323Z,97097.41
2022-10-17T12:55:27.943Z,97089.72
2022-10-17T12:57:58.743Z,97094.91
2022-10-17T13:00:33.152Z,97108.66
2022-10-17T13:03:08.210Z,97096.16
2022-10-17T13:05:39.351Z,97104.00
2022-10-17T13:08:17.692Z,97100.72
2022-10-17T13:10:51.568Z,97101.56
2022-10-17T13:16:08.839Z,97097.03
2022-10-17T13:18:37.310Z,97099.88
2022-10-17T13:21:07.825Z,97096.28
2022-10-17T13:23:38.775Z,97094.56
2022-10-17T13:26:13.952Z,97095.94
2022-10-17T13:28:42.280Z,97089.66
2022-10-17T13:31:29.067Z,97086.97
2022-10-17T13:33:58.929Z,97089.53
2022-10-17T13:36:28.824Z,97089.53
2022-10-17T13:38:58.930Z,97097.91
2022-10-17T13:41:37.097Z,97100.69
2022-10-17T13:44:11.546Z,97099.59
2022-10-17T13:46:40.560Z,97097.09
2022-10-17T13:49:20.066Z,97098.63
2022-10-17T13:51:51.662Z,97091.16
2022-10-17T13:54:33.317Z,97090.41
2022-10-17T13:57:02.497Z,97093.22
2022-10-17T13:59:35.248Z,97089.75
2022-10-17T14:02:03.581Z,97082.69
2022-10-17T14:04:44.787Z,97089.41
2022-10-17T14:07:25.667Z,97082.50
2022-10-17T14:09:55.382Z,97096.25
2022-10-17T14:12:23.852Z,97087.63
2022-10-17T14:15:10.991Z,97090.34
2022-10-17T14:17:40.776Z,97087.44
2022-10-17T14:23:21.351Z,97104.78
2022-10-17T14:25:49.077Z,97097.16
2022-10-17T14:28:18.474Z,97101.47
2022-10-17T14:31:02.710Z,97103.16
2022-10-17T14:33:32.600Z,97107.00
2022-10-17T14:36:02.471Z,97101.31
2022-10-17T14:38:31.279Z,97098.94
2022-10-17T14:41:44.612Z,97101.78
2022-10-17T14:43:55.915Z,97106.66
2022-10-17T14:46:24.468Z,97108.13
2022-10-17T14:48:55.075Z,97113.09
2022-10-17T14:51:23.866Z,97111.66
2022-10-17T14:54:05.620Z,97117.03
2022-10-17T14:56:41.784Z,97118.00
2022-10-17T14:59:12.623Z,97123.44
2022-10-17T15:01:46.595Z,97118.47
2022-10-17T15:04:15.231Z,97124.22
2022-10-17T15:06:43.656Z,97121.16
2022-10-17T15:09:12.119Z,97123.50
2022-10-17T15:11:41.909Z,97122.94
2022-10-17T15:14:10.422Z,97117.84
2022-10-17T15:16:39.440Z,97117.50
2022-10-17T15:19:07.828Z,97115.44
2022-10-17T15:21:42.094Z,97117.88
2022-10-17T15:24:15.925Z,97123.50
2022-10-17T15:26:45.608Z,97122.47
2022-10-17T15:29:16.036Z,97125.94
2022-10-17T15:31:44.568Z,97130.09
2022-10-17T15:34:13.027Z,97134.72
2022-10-17T15:36:42.627Z,97131.34
2022-10-17T15:39:11.274Z,97131.09
2022-10-17T15:41:39.583Z,97130.63
2022-10-17T15:44:09.300Z,97136.47
2022-10-17T15:46:37.652Z,97137.59
2022-10-17T15:49:07.649Z,97139.19
2022-10-17T15:51:35.959Z,97145.38
2022-10-17T15:54:05.197Z,97145.13
2022-10-17T15:56:36.261Z,97147.03
2022-10-17T15:59:05.403Z,97152.94
2022-10-17T16:01:35.422Z,97149.75
2022-10-17T16:04:03.994Z,97161.59
2022-10-17T16:06:32.259Z,97155.78
2022-10-17T16:09:00.603Z,97159.72
2022-10-17T16:11:31.967Z,97163.13
2022-10-17T16:14:03.019Z,97162.88
2022-10-17T16:16:31.800Z,97163.28
2022-10-17T16:19:02.353Z,97169.78
2022-10-17T16:21:33.885Z,97173.00
2022-10-17T16:24:02.892Z,97171.94
2022-10-17T16:26:31.201Z,97178.75
2022-10-17T16:29:02.891Z,97182.97
2022-10-17T16:31:33.081Z,97175.97
2022-10-17T16:34:04.520Z,97177.50
2022-10-17T16:36:32.766Z,97175.28
2022-10-17T16:39:01.122Z,97186.53
2022-10-17T16:41:31.265Z,97192.03
2022-10-17T16:44:02.207Z,97196.34
2022-10-17T16:46:31.832Z,97194.47
2022-10-17T16:49:00.470Z,97192.22
2022-10-17T16:51:31.273Z,97197.53
2022-10-17T16:54:00.278Z,97204.56
2022-10-17T16:56:32.645Z,97200.09
2022-10-17T16:59:01.587Z,97206.41
2022-10-17T17:01:30.338Z,97208.38
2022-10-17T17:03:58.634Z,97205.75
2022-10-17T17:06:28.158Z,97214.72
2022-10-17T17:08:58.611Z,97220.56
2022-10-17T17:11:27.879Z,97220.97
2022-10-17T17:13:56.702Z,97218.41
2022-10-17T17:16:28.622Z,97220.09
2022-10-17T17:18:58.018Z,97219.09
2022-10-17T17:21:26.990Z,97228.13
2022-10-17T17:23:58.361Z,97223.31
2022-10-17T17:26:28.221Z,97222.44
2022-10-17T17:28:58.797Z,97217.59
2022-10-17T17:31:29.726Z,97223.91
2022-10-17T17:33:58.332Z,97226.78
2022-10-17T17:36:28.038Z,97229.22
2022-10-17T17:38:59.654Z,97240.00
2022-10-17T17:41:28.265Z,97232.78
2022-10-17T17:43:57.105Z,97241.88
2022-10-17T17:46:25.926Z,97240.25
2022-10-17T17:48:55.246Z,97243.34
2022-10-17T17:51:28.286Z,97246.66
2022-10-17T17:53:59.077Z,97242.31
2022-10-17T17:56:29.808Z,97249.56
2022-10-17T17:58:59.592Z,97252.44
2022-10-17T18:01:30.399Z,97249.13
2022-10-17T18:04:00.274Z,97247.28
2022-10-17T18:06:29.399Z,97243.72
2022-10-17T18:08:59.951Z,97242.69
2022-10-17T18:11:28.160Z,97245.28
2022-10-17T18:13:57.014Z,97245.63
2022-10-17T18:16:25.496Z,97244.03
2022-10-17T18:18:53.854Z,97243.78
2022-10-17T18:21:22.517Z,97247.97
2022-10-17T18:23:53.070Z,97248.34
2022-10-17T18:26:23.207Z,97247.97
2022-10-17T18:28:51.879Z,97243.59
2022-10-17T18:31:24.639Z,97250.81
2022-10-17T18:33:53.807Z,97253.47
2022-10-17T18:36:22.964Z,97246.91
2022-10-17T18:38:51.215Z,97248.09
2022-10-17T18:41:22.943Z,97243.06
2022-10-17T18:43:52.530Z,97252.19
2022-10-17T18:46:22.454Z,97252.47
2022-10-17T18:48:51.677Z,97256.56
2022-10-17T18:51:22.227Z,97255.22
2022-10-17T18:53:51.081Z,97257.78
2022-10-17T18:56:19.828Z,97263.63
2022-10-17T18:58:49.537Z,97260.44
2022-10-17T19:01:19.811Z,97253.66
2022-10-17T19:03:49.535Z,97262.16
2022-10-17T19:06:19.891Z,97264.03
2022-10-17T19:08:48.878Z,97265.97
2022-10-17T19:11:20.184Z,97265.53
2022-10-17T19:13:50.742Z,97267.78
2022-10-17T19:16:19.594Z,97263.41
2022-10-17T19:18:51.122Z,97259.97
2022-10-17T19:21:21.947Z,97262.41
2022-10-17T19:23:52.238Z,97264.81
2022-10-17T19:26:21.094Z,97273.06
2022-10-17T19:28:52.235Z,97274.19
2022-10-17T19:31:26.284Z,97263.84
2022-10-17T19:33:55.569Z,97269.88
2022-10-17T19:36:28.834Z,97270.44
2022-10-17T19:39:01.293Z,97266.22
2022-10-17T19:41:29.821Z,97262.84
2022-10-17T19:43:59.503Z,97263.59
2022-10-17T19:46:28.963Z,97263.59
2022-10-17T19:48:57.959Z,97263.72
2022-10-17T19:51:27.020Z,97259.94
2022-10-17T19:53:56.711Z,97263.00
2022-10-17T19:56:25.857Z,97260.03
2022-10-17T19:58:55.576Z,97264.97
2022-10-17T20:01:27.089Z,97263.59
2022-10-17T20:03:55.891Z,97263.97
2022-10-17T20:06:24.449Z,97268.69
2022-10-17T20:08:53.086Z,97268.00
2022-10-17T20:11:22.654Z,97274.69
2022-10-17T20:13:51.552Z,97271.91
2022-10-17T20:16:21.625Z,97274.03
2022-10-17T20:18:52.499Z,97277.56
2022-10-17T20:21:23.556Z,97281.91
2022-10-17T20:23:52.094Z,97280.59
2022-10-17T20:26:37.165Z,97279.59
2022-10-17T20:29:10.934Z,97278.56
2022-10-17T20:34:27.966Z,97280.13
2022-10-17T20:36:56.218Z,97284.03
2022-10-17T20:39:24.585Z,97290.22
2022-10-17T20:41:53.174Z,97285.22
2022-10-17T20:44:21.542Z,97284.56
2022-10-17T20:47:01.104Z,97280.44
2022-10-17T20:49:32.282Z,97288.06
2022-10-17T20:52:00.761Z,97284.47
2022-10-17T20:54:29.719Z,97291.69
2022-10-17T20:57:01.097Z,97290.38
2022-10-17T20:59:32.495Z,97293.44
2022-10-17T21:02:01.185Z,97296.84
2022-10-17T21:04:45.831Z,97288.81
2022-10-17T21:07:15.217Z,97290.19
2022-10-17T21:09:43.557Z,97293.25
2022-10-17T21:12:15.211Z,97293.69
2022-10-17T21:14:50.415Z,97289.81
2022-10-17T21:17:18.741Z,97298.44
2022-10-17T21:19:48.730Z,97297.06
2022-10-17T21:22:17.169Z,97290.88
2022-10-17T21:24:45.582Z,97299.28
2022-10-17T21:27:16.196Z,97300.13
2022-10-17T21:29:44.455Z,97299.09
2022-10-17T21:32:25.142Z,97301.47
2022-10-17T21:35:02.662Z,97296.56
2022-10-17T21:37:30.938Z,97307.13
2022-10-17T21:39:59.211Z,97295.34
2022-10-17T21:42:27.534Z,97295.97
2022-10-17T21:44:55.948Z,97301.53
2022-10-17T21:47:27.536Z,97300.75
2022-10-17T21:49:56.170Z,97299.75
2022-10-17T21:52:25.865Z,97301.91
2022-10-17T21:54:54.139Z,97298.25
2022-10-17T21:57:22.484Z,97303.59
2022-10-17T21:59:50.713Z,97292.25
2022-10-17T22:02:19.292Z,97293.25
2022-10-17T22:04:47.659Z,97289.41
2022-10-17T22:07:15.926Z,97292.00
2022-10-17T22:09:45.631Z,97294.38
2022-10-17T22:12:13.864Z,97297.56
2022-10-17T22:14:42.518Z,97297.97
2022-10-17T22:17:10.850Z,97296.94
2022-10-17T22:19:39.104Z,97301.81
2022-10-17T22:22:07.346Z,97297.72
2022-10-17T22:24:35.918Z,97304.63
2022-10-17T22:27:06.165Z,97300.00
2022-10-17T22:29:34.584Z,97316.00
2022-10-17T22:32:03.007Z,97302.50
2022-10-17T22:34:31.297Z,97302.81
2022-10-17T22:36:59.573Z,97298.16
2022-10-17T22:39:27.965Z,97299.09
2022-10-17T22:41:57.313Z,97298.50
2022-10-17T22:44:27.079Z,97303.31
2022-10-17T22:46:55.396Z,97298.78
2022-10-17T22:49:23.812Z,97303.38
2022-10-17T22:51:52.132Z,97302.88
2022-10-17T22:54:20.457Z,97304.38
2022-10-17T22:56:48.696Z,97310.56
2022-10-17T22:59:17.011Z,97304.97
2022-10-17T23:01:46.679Z,97303.72
2022-10-17T23:04:14.931Z,97305.22
2022-10-17T23:06:43.160Z,97302.06
2022-10-17T23:09:13.144Z,97298.72
2022-10-17T23:11:41.365Z,97299.34
2022-10-17T23:14:09.605Z,97302.72
2022-10-17T23:16:37.799Z,97302.97
2022-10-17T23:19:07.360Z,97297.66
2022-10-17T23:21:35.582Z,97302.13
2022-10-17T23:24:03.785Z,97297.13
2022-10-17T23:26:32.077Z,97294.56
2022-10-17T23:29:00.481Z,97289.88
2022-10-17T23:31:28.805Z,97291.88
2022-10-17T23:33:57.084Z,97287.19
2022-10-17T23:36:26.849Z,97294.06
2022-10-17T23:38:57.841Z,97286.72
2022-10-17T23:41:26.899Z,97293.56
2022-10-17T23:43:55.080Z,97284.41
2022-10-17T23:46:23.293Z,97288.25
2022-10-17T23:48:51.940Z,97283.59
2022-10-17T23:51:20.172Z,97291.47
2022-10-17T23:53:49.873Z,97285.97
2022-10-17T23:56:18.444Z,97283.06
2022-10-17T23:58:46.816Z,97281.72
